sensor_id;sensor_type;location;lat;lon;timestamp;temperature;humidity
76967;DHT22;65904;52.278;20.972;2023-07-20T00:02:10;18.40;99.90
76967;DHT22;65904;52.278;20.972;2023-07-20T00:04:57;18.40;99.90
76967;DHT22;65904;52.278;20.972;2023-07-20T00:07:43;18.50;99.90
76967;DHT22;65904;52.278;20.972;2023-07-20T00:10:29;18.40;99.90
76967;DHT22;65904;52.278;20.972;2023-07-20T00:13:15;18.40;99.90
76967;DHT22;65904;52.278;20.972;2023-07-20T00:16:05;18.40;99.90
76967;DHT22;65904;52.278;20.972;2023-07-20T00:18:51;18.30;99.90
76967;DHT22;65904;52.278;20.972;2023-07-20T00:21:37;18.30;99.90
76967;DHT22;65904;52.278;20.972;2023-07-20T00:24:25;18.20;99.90
76967;DHT22;65904;52.278;20.972;2023-07-20T00:27:11;18.20;99.90
76967;DHT22;65904;52.278;20.972;2023-07-20T00:29:58;18.20;99.90
76967;DHT22;65904;52.278;20.972;2023-07-20T00:32:45;18.20;99.90
76967;DHT22;65904;52.278;20.972;2023-07-20T00:35:32;18.10;99.90
76967;DHT22;65904;52.278;20.972;2023-07-20T00:38:18;18.00;99.90
76967;DHT22;65904;52.278;20.972;2023-07-20T00:41:06;18.00;99.90
76967;DHT22;65904;52.278;20.972;2023-07-20T00:43:52;17.90;99.90
76967;DHT22;65904;52.278;20.972;2023-07-20T00:46:39;17.90;99.90
76967;DHT22;65904;52.278;20.972;2023-07-20T00:49:27;17.80;99.90
76967;DHT22;65904;52.278;20.972;2023-07-20T00:52:14;17.90;99.90
76967;DHT22;65904;52.278;20.972;2023-07-20T00:55:01;17.90;99.90
76967;DHT22;65904;52.278;20.972;2023-07-20T00:57:49;17.90;99.90
76967;DHT22;65904;52.278;20.972;2023-07-20T01:00:36;17.90;99.90
76967;DHT22;65904;52.278;20.972;2023-07-20T01:03:22;17.80;99.90
76967;DHT22;65904;52.278;20.972;2023-07-20T01:06:25;17.80;99.90
76967;DHT22;65904;52.278;20.972;2023-07-20T01:09:14;17.80;99.90
76967;DHT22;65904;52.278;20.972;2023-07-20T01:12:07;17.70;99.90
76967;DHT22;65904;52.278;20.972;2023-07-20T01:14:54;17.70;99.90
76967;DHT22;65904;52.278;20.972;2023-07-20T01:17:40;17.70;99.90
76967;DHT22;65904;52.278;20.972;2023-07-20T01:20:28;17.70;99.90
76967;DHT22;65904;52.278;20.972;2023-07-20T01:26:38;17.80;99.90
76967;DHT22;65904;52.278;20.972;2023-07-20T01:29:43;17.70;99.90
76967;DHT22;65904;52.278;20.972;2023-07-20T01:32:40;17.70;99.90
76967;DHT22;65904;52.278;20.972;2023-07-20T01:35:29;17.60;99.90
76967;DHT22;65904;52.278;20.972;2023-07-20T01:38:17;17.70;99.90
76967;DHT22;65904;52.278;20.972;2023-07-20T01:41:04;17.60;99.90
76967;DHT22;65904;52.278;20.972;2023-07-20T01:43:51;17.60;99.90
76967;DHT22;65904;52.278;20.972;2023-07-20T01:46:37;17.50;99.90
76967;DHT22;65904;52.278;20.972;2023-07-20T01:49:25;17.50;99.90
76967;DHT22;65904;52.278;20.972;2023-07-20T01:52:11;17.60;99.90
76967;DHT22;65904;52.278;20.972;2023-07-20T01:54:57;17.60;99.90
76967;DHT22;65904;52.278;20.972;2023-07-20T01:57:43;17.70;99.90
76967;DHT22;65904;52.278;20.972;2023-07-20T02:00:29;17.70;99.90
76967;DHT22;65904;52.278;20.972;2023-07-20T02:03:15;17.70;99.90
76967;DHT22;65904;52.278;20.972;2023-07-20T02:06:02;17.70;99.90
76967;DHT22;65904;52.278;20.972;2023-07-20T02:08:48;17.70;99.90
76967;DHT22;65904;52.278;20.972;2023-07-20T02:11:34;17.80;99.90
76967;DHT22;65904;52.278;20.972;2023-07-20T02:14:20;17.80;99.90
76967;DHT22;65904;52.278;20.972;2023-07-20T02:17:07;17.90;99.90
76967;DHT22;65904;52.278;20.972;2023-07-20T02:19:56;17.90;99.90
76967;DHT22;65904;52.278;20.972;2023-07-20T02:22:44;17.90;99.90
76967;DHT22;65904;52.278;20.972;2023-07-20T02:25:30;17.80;99.90
76967;DHT22;65904;52.278;20.972;2023-07-20T02:28:16;17.80;99.90
76967;DHT22;65904;52.278;20.972;2023-07-20T02:31:02;17.70;99.90
76967;DHT22;65904;52.278;20.972;2023-07-20T02:33:48;17.70;99.90
76967;DHT22;65904;52.278;20.972;2023-07-20T02:36:35;17.80;99.90
76967;DHT22;65904;52.278;20.972;2023-07-20T02:39:22;17.80;99.90
76967;DHT22;65904;52.278;20.972;2023-07-20T02:42:08;17.80;99.90
76967;DHT22;65904;52.278;20.972;2023-07-20T02:44:55;17.70;99.90
76967;DHT22;65904;52.278;20.972;2023-07-20T02:47:41;17.70;99.90
76967;DHT22;65904;52.278;20.972;2023-07-20T02:50:27;17.70;99.90
76967;DHT22;65904;52.278;20.972;2023-07-20T02:53:13;17.70;99.90
76967;DHT22;65904;52.278;20.972;2023-07-20T02:56:01;17.70;99.90
76967;DHT22;65904;52.278;20.972;2023-07-20T02:58:47;17.60;99.90
76967;DHT22;65904;52.278;20.972;2023-07-20T03:01:33;17.60;99.90
76967;DHT22;65904;52.278;20.972;2023-07-20T03:04:19;17.60;99.90
76967;DHT22;65904;52.278;20.972;2023-07-20T03:07:06;17.60;99.90
76967;DHT22;65904;52.278;20.972;2023-07-20T03:09:52;17.60;99.90
76967;DHT22;65904;52.278;20.972;2023-07-20T03:12:41;17.50;99.90
76967;DHT22;65904;52.278;20.972;2023-07-20T03:15:27;17.50;99.90
76967;DHT22;65904;52.278;20.972;2023-07-20T03:18:14;17.60;99.90
76967;DHT22;65904;52.278;20.972;2023-07-20T03:21:00;17.70;99.90
76967;DHT22;65904;52.278;20.972;2023-07-20T03:23:47;17.60;99.90
76967;DHT22;65904;52.278;20.972;2023-07-20T03:26:32;17.60;99.90
76967;DHT22;65904;52.278;20.972;2023-07-20T03:29:20;17.60;99.90
76967;DHT22;65904;52.278;20.972;2023-07-20T03:32:07;17.60;99.90
76967;DHT22;65904;52.278;20.972;2023-07-20T03:34:53;17.70;99.90
76967;DHT22;65904;52.278;20.972;2023-07-20T03:37:40;17.70;99.90
76967;DHT22;65904;52.278;20.972;2023-07-20T03:40:27;17.60;99.90
76967;DHT22;65904;52.278;20.972;2023-07-20T03:43:13;17.60;99.90
76967;DHT22;65904;52.278;20.972;2023-07-20T03:46:00;17.40;99.90
76967;DHT22;65904;52.278;20.972;2023-07-20T03:48:52;17.20;99.90
76967;DHT22;65904;52.278;20.972;2023-07-20T03:51:38;17.20;99.90
76967;DHT22;65904;52.278;20.972;2023-07-20T03:54:24;17.20;99.90
76967;DHT22;65904;52.278;20.972;2023-07-20T03:57:10;17.30;99.90
76967;DHT22;65904;52.278;20.972;2023-07-20T03:59:56;17.40;99.90
76967;DHT22;65904;52.278;20.972;2023-07-20T04:02:44;17.40;99.90
76967;DHT22;65904;52.278;20.972;2023-07-20T04:05:30;17.40;99.90
76967;DHT22;65904;52.278;20.972;2023-07-20T04:08:17;17.30;99.90
76967;DHT22;65904;52.278;20.972;2023-07-20T04:11:03;17.30;99.90
76967;DHT22;65904;52.278;20.972;2023-07-20T04:13:50;17.30;99.90
76967;DHT22;65904;52.278;20.972;2023-07-20T04:16:36;17.30;99.90
76967;DHT22;65904;52.278;20.972;2023-07-20T04:19:23;17.30;99.90
76967;DHT22;65904;52.278;20.972;2023-07-20T04:22:09;17.30;99.90
76967;DHT22;65904;52.278;20.972;2023-07-20T04:24:56;17.20;99.90
76967;DHT22;65904;52.278;20.972;2023-07-20T04:27:42;17.30;99.90
76967;DHT22;65904;52.278;20.972;2023-07-20T04:30:28;17.30;99.90
76967;DHT22;65904;52.278;20.972;2023-07-20T04:33:18;17.20;99.90
76967;DHT22;65904;52.278;20.972;2023-07-20T04:36:07;17.20;99.90
76967;DHT22;65904;52.278;20.972;2023-07-20T04:38:54;17.20;99.90
76967;DHT22;65904;52.278;20.972;2023-07-20T04:41:41;17.20;99.90
76967;DHT22;65904;52.278;20.972;2023-07-20T04:44:27;17.10;99.90
76967;DHT22;65904;52.278;20.972;2023-07-20T04:47:14;16.90;99.90
76967;DHT22;65904;52.278;20.972;2023-07-20T04:50:00;17.00;99.90
76967;DHT22;65904;52.278;20.972;2023-07-20T04:52:48;17.00;99.90
76967;DHT22;65904;52.278;20.972;2023-07-20T04:55:38;17.00;99.90
76967;DHT22;65904;52.278;20.972;2023-07-20T04:58:24;16.90;99.90
76967;DHT22;65904;52.278;20.972;2023-07-20T05:01:11;17.00;99.90
76967;DHT22;65904;52.278;20.972;2023-07-20T05:03:58;16.90;99.90
76967;DHT22;65904;52.278;20.972;2023-07-20T05:06:44;17.00;99.90
76967;DHT22;65904;52.278;20.972;2023-07-20T05:09:31;16.90;99.90
76967;DHT22;65904;52.278;20.972;2023-07-20T05:12:18;17.00;99.90
76967;DHT22;65904;52.278;20.972;2023-07-20T05:15:04;17.10;99.90
76967;DHT22;65904;52.278;20.972;2023-07-20T05:17:51;17.10;99.90
76967;DHT22;65904;52.278;20.972;2023-07-20T05:20:37;17.20;99.90
76967;DHT22;65904;52.278;20.972;2023-07-20T05:23:23;17.20;99.90
76967;DHT22;65904;52.278;20.972;2023-07-20T05:26:11;17.30;99.90
76967;DHT22;65904;52.278;20.972;2023-07-20T05:28:58;17.30;99.90
76967;DHT22;65904;52.278;20.972;2023-07-20T05:31:44;17.30;99.90
76967;DHT22;65904;52.278;20.972;2023-07-20T05:34:30;17.30;99.90
76967;DHT22;65904;52.278;20.972;2023-07-20T05:37:17;17.30;99.90
76967;DHT22;65904;52.278;20.972;2023-07-20T05:40:04;17.40;99.90
76967;DHT22;65904;52.278;20.972;2023-07-20T05:42:52;17.60;99.90
76967;DHT22;65904;52.278;20.972;2023-07-20T05:45:41;17.60;99.90
76967;DHT22;65904;52.278;20.972;2023-07-20T05:48:28;17.60;99.90
76967;DHT22;65904;52.278;20.972;2023-07-20T05:51:14;17.70;99.90
76967;DHT22;65904;52.278;20.972;2023-07-20T05:54:01;17.70;99.90
76967;DHT22;65904;52.278;20.972;2023-07-20T05:56:46;17.80;99.90
76967;DHT22;65904;52.278;20.972;2023-07-20T05:59:34;17.90;99.90
76967;DHT22;65904;52.278;20.972;2023-07-20T06:02:20;17.90;99.90
76967;DHT22;65904;52.278;20.972;2023-07-20T06:05:08;17.80;99.90
76967;DHT22;65904;52.278;20.972;2023-07-20T06:07:55;17.80;99.90
76967;DHT22;65904;52.278;20.972;2023-07-20T06:10:42;17.80;99.90
76967;DHT22;65904;52.278;20.972;2023-07-20T06:13:28;17.80;99.90
76967;DHT22;65904;52.278;20.972;2023-07-20T06:16:16;17.80;99.90
76967;DHT22;65904;52.278;20.972;2023-07-20T06:19:02;17.90;99.90
76967;DHT22;65904;52.278;20.972;2023-07-20T06:21:49;18.00;99.90
76967;DHT22;65904;52.278;20.972;2023-07-20T06:24:35;18.00;99.90
76967;DHT22;65904;52.278;20.972;2023-07-20T06:27:21;18.10;99.90
76967;DHT22;65904;52.278;20.972;2023-07-20T06:30:08;18.20;99.90
76967;DHT22;65904;52.278;20.972;2023-07-20T06:32:56;18.20;99.90
76967;DHT22;65904;52.278;20.972;2023-07-20T06:35:42;18.10;99.90
76967;DHT22;65904;52.278;20.972;2023-07-20T06:38:29;18.20;99.90
76967;DHT22;65904;52.278;20.972;2023-07-20T06:41:16;18.20;99.90
76967;DHT22;65904;52.278;20.972;2023-07-20T06:44:02;18.20;99.90
76967;DHT22;65904;52.278;20.972;2023-07-20T06:46:49;18.30;99.90
76967;DHT22;65904;52.278;20.972;2023-07-20T06:49:37;18.40;99.90
76967;DHT22;65904;52.278;20.972;2023-07-20T06:52:23;18.40;99.90
76967;DHT22;65904;52.278;20.972;2023-07-20T06:55:09;18.50;99.90
76967;DHT22;65904;52.278;20.972;2023-07-20T06:57:55;18.40;99.90
76967;DHT22;65904;52.278;20.972;2023-07-20T07:00:41;18.40;99.90
76967;DHT22;65904;52.278;20.972;2023-07-20T07:03:27;18.40;99.90
76967;DHT22;65904;52.278;20.972;2023-07-20T07:06:15;18.40;99.90
76967;DHT22;65904;52.278;20.972;2023-07-20T07:09:01;18.40;99.90
76967;DHT22;65904;52.278;20.972;2023-07-20T07:11:48;18.40;99.90
76967;DHT22;65904;52.278;20.972;2023-07-20T07:14:34;18.40;99.90
76967;DHT22;65904;52.278;20.972;2023-07-20T07:17:21;18.40;99.90
76967;DHT22;65904;52.278;20.972;2023-07-20T07:20:08;18.30;99.90
76967;DHT22;65904;52.278;20.972;2023-07-20T07:22:56;18.30;99.90
76967;DHT22;65904;52.278;20.972;2023-07-20T07:25:42;18.30;99.90
76967;DHT22;65904;52.278;20.972;2023-07-20T07:28:28;18.10;99.90
76967;DHT22;65904;52.278;20.972;2023-07-20T07:31:15;18.00;99.90
76967;DHT22;65904;52.278;20.972;2023-07-20T07:34:01;18.00;99.90
76967;DHT22;65904;52.278;20.972;2023-07-20T07:36:47;18.00;99.90
76967;DHT22;65904;52.278;20.972;2023-07-20T07:39:35;18.00;99.90
76967;DHT22;65904;52.278;20.972;2023-07-20T07:42:21;17.90;99.90
76967;DHT22;65904;52.278;20.972;2023-07-20T07:45:08;17.80;99.90
76967;DHT22;65904;52.278;20.972;2023-07-20T07:47:55;17.70;99.90
76967;DHT22;65904;52.278;20.972;2023-07-20T07:50:41;17.60;99.90
76967;DHT22;65904;52.278;20.972;2023-07-20T07:53:27;17.70;99.90
76967;DHT22;65904;52.278;20.972;2023-07-20T07:56:15;17.60;99.90
76967;DHT22;65904;52.278;20.972;2023-07-20T07:59:02;17.60;99.90
76967;DHT22;65904;52.278;20.972;2023-07-20T08:01:49;17.60;99.90
76967;DHT22;65904;52.278;20.972;2023-07-20T08:04:35;17.50;99.90
76967;DHT22;65904;52.278;20.972;2023-07-20T08:07:21;17.50;99.90
76967;DHT22;65904;52.278;20.972;2023-07-20T08:10:08;17.60;99.90
76967;DHT22;65904;52.278;20.972;2023-07-20T08:12:56;17.60;99.90
76967;DHT22;65904;52.278;20.972;2023-07-20T08:15:50;17.60;99.90
76967;DHT22;65904;52.278;20.972;2023-07-20T08:18:36;17.60;99.90
76967;DHT22;65904;52.278;20.972;2023-07-20T08:21:22;17.60;99.90
76967;DHT22;65904;52.278;20.972;2023-07-20T08:24:09;17.60;99.90
76967;DHT22;65904;52.278;20.972;2023-07-20T08:26:55;17.70;99.90
76967;DHT22;65904;52.278;20.972;2023-07-20T08:29:42;17.70;99.90
76967;DHT22;65904;52.278;20.972;2023-07-20T08:32:28;17.70;99.90
76967;DHT22;65904;52.278;20.972;2023-07-20T08:35:14;17.80;99.90
76967;DHT22;65904;52.278;20.972;2023-07-20T08:38:00;17.80;99.90
76967;DHT22;65904;52.278;20.972;2023-07-20T08:40:46;17.80;99.90
76967;DHT22;65904;52.278;20.972;2023-07-20T08:43:33;17.90;99.90
76967;DHT22;65904;52.278;20.972;2023-07-20T08:46:20;17.90;99.90
76967;DHT22;65904;52.278;20.972;2023-07-20T08:49:07;17.80;99.90
76967;DHT22;65904;52.278;20.972;2023-07-20T08:51:54;17.80;99.90
76967;DHT22;65904;52.278;20.972;2023-07-20T08:54:40;17.90;99.90
76967;DHT22;65904;52.278;20.972;2023-07-20T08:57:26;17.80;99.90
76967;DHT22;65904;52.278;20.972;2023-07-20T09:00:13;17.90;99.90
76967;DHT22;65904;52.278;20.972;2023-07-20T09:03:01;17.90;99.90
76967;DHT22;65904;52.278;20.972;2023-07-20T09:05:48;18.00;99.90
76967;DHT22;65904;52.278;20.972;2023-07-20T09:08:37;18.10;99.90
76967;DHT22;65904;52.278;20.972;2023-07-20T09:11:23;18.20;99.90
76967;DHT22;65904;52.278;20.972;2023-07-20T09:14:09;18.30;99.90
76967;DHT22;65904;52.278;20.972;2023-07-20T09:16:55;18.40;99.90
76967;DHT22;65904;52.278;20.972;2023-07-20T09:19:46;18.40;99.90
76967;DHT22;65904;52.278;20.972;2023-07-20T09:22:32;18.40;99.90
76967;DHT22;65904;52.278;20.972;2023-07-20T09:25:19;18.40;99.90
76967;DHT22;65904;52.278;20.972;2023-07-20T09:28:05;18.40;99.90
76967;DHT22;65904;52.278;20.972;2023-07-20T09:30:51;18.60;99.90
76967;DHT22;65904;52.278;20.972;2023-07-20T09:33:36;18.60;99.90
76967;DHT22;65904;52.278;20.972;2023-07-20T09:36:27;18.70;99.90
76967;DHT22;65904;52.278;20.972;2023-07-20T09:39:13;18.90;99.90
76967;DHT22;65904;52.278;20.972;2023-07-20T09:42:00;18.90;99.90
76967;DHT22;65904;52.278;20.972;2023-07-20T09:44:46;19.00;99.90
76967;DHT22;65904;52.278;20.972;2023-07-20T09:47:35;19.00;99.90
76967;DHT22;65904;52.278;20.972;2023-07-20T09:50:21;19.10;99.90
76967;DHT22;65904;52.278;20.972;2023-07-20T09:53:12;19.00;99.90
76967;DHT22;65904;52.278;20.972;2023-07-20T09:55:59;19.10;99.90
76967;DHT22;65904;52.278;20.972;2023-07-20T09:58:45;19.30;99.90
76967;DHT22;65904;52.278;20.972;2023-07-20T10:01:31;19.20;99.90
76967;DHT22;65904;52.278;20.972;2023-07-20T10:04:18;19.00;99.90
76967;DHT22;65904;52.278;20.972;2023-07-20T10:07:08;19.00;99.90
76967;DHT22;65904;52.278;20.972;2023-07-20T10:09:58;19.00;99.90
76967;DHT22;65904;52.278;20.972;2023-07-20T10:12:47;18.80;99.90
76967;DHT22;65904;52.278;20.972;2023-07-20T10:15:36;18.80;99.90
76967;DHT22;65904;52.278;20.972;2023-07-20T10:18:27;18.80;99.90
76967;DHT22;65904;52.278;20.972;2023-07-20T10:21:14;18.70;99.90
76967;DHT22;65904;52.278;20.972;2023-07-20T10:24:02;18.70;99.90
76967;DHT22;65904;52.278;20.972;2023-07-20T10:26:50;18.70;99.90
76967;DHT22;65904;52.278;20.972;2023-07-20T10:29:36;18.80;99.90
76967;DHT22;65904;52.278;20.972;2023-07-20T10:32:22;18.80;99.90
76967;DHT22;65904;52.278;20.972;2023-07-20T10:35:11;18.90;99.90
76967;DHT22;65904;52.278;20.972;2023-07-20T10:38:01;18.90;99.90
76967;DHT22;65904;52.278;20.972;2023-07-20T10:40:53;19.00;99.90
76967;DHT22;65904;52.278;20.972;2023-07-20T10:43:43;19.20;99.90
76967;DHT22;65904;52.278;20.972;2023-07-20T10:46:42;19.20;99.90
76967;DHT22;65904;52.278;20.972;2023-07-20T10:49:28;19.50;99.90
76967;DHT22;65904;52.278;20.972;2023-07-20T10:52:14;19.80;99.90
76967;DHT22;65904;52.278;20.972;2023-07-20T10:55:09;20.00;99.90
76967;DHT22;65904;52.278;20.972;2023-07-20T10:58:07;20.20;99.90
76967;DHT22;65904;52.278;20.972;2023-07-20T11:01:02;20.50;99.90
76967;DHT22;65904;52.278;20.972;2023-07-20T11:03:49;20.50;99.90
76967;DHT22;65904;52.278;20.972;2023-07-20T11:06:42;20.90;99.90
76967;DHT22;65904;52.278;20.972;2023-07-20T11:09:34;21.80;99.90
76967;DHT22;65904;52.278;20.972;2023-07-20T11:12:20;22.60;99.90
76967;DHT22;65904;52.278;20.972;2023-07-20T11:15:07;22.70;99.90
76967;DHT22;65904;52.278;20.972;2023-07-20T11:18:11;22.80;99.90
76967;DHT22;65904;52.278;20.972;2023-07-20T11:20:57;22.50;99.90
76967;DHT22;65904;52.278;20.972;2023-07-20T11:23:43;22.00;99.90
76967;DHT22;65904;52.278;20.972;2023-07-20T11:26:40;22.10;99.90
76967;DHT22;65904;52.278;20.972;2023-07-20T11:29:26;22.10;99.90
76967;DHT22;65904;52.278;20.972;2023-07-20T11:32:12;21.70;99.90
76967;DHT22;65904;52.278;20.972;2023-07-20T11:35:12;21.50;99.90
76967;DHT22;65904;52.278;20.972;2023-07-20T11:37:58;21.70;99.90
76967;DHT22;65904;52.278;20.972;2023-07-20T11:40:45;21.80;99.90
76967;DHT22;65904;52.278;20.972;2023-07-20T11:43:32;22.00;99.90
76967;DHT22;65904;52.278;20.972;2023-07-20T11:46:18;22.40;99.90
76967;DHT22;65904;52.278;20.972;2023-07-20T11:49:04;23.20;99.90
76967;DHT22;65904;52.278;20.972;2023-07-20T11:51:52;24.30;99.90
76967;DHT22;65904;52.278;20.972;2023-07-20T11:54:39;25.40;99.90
76967;DHT22;65904;52.278;20.972;2023-07-20T11:57:26;25.60;99.90
76967;DHT22;65904;52.278;20.972;2023-07-20T12:00:13;26.00;99.90
76967;DHT22;65904;52.278;20.972;2023-07-20T12:03:01;25.20;99.90
76967;DHT22;65904;52.278;20.972;2023-07-20T12:05:47;25.10;99.90
76967;DHT22;65904;52.278;20.972;2023-07-20T12:08:38;24.50;99.90
76967;DHT22;65904;52.278;20.972;2023-07-20T12:11:34;24.20;99.90
76967;DHT22;65904;52.278;20.972;2023-07-20T12:14:21;23.80;99.90
76967;DHT22;65904;52.278;20.972;2023-07-20T12:17:10;24.20;99.90
76967;DHT22;65904;52.278;20.972;2023-07-20T12:19:57;24.70;99.90
76967;DHT22;65904;52.278;20.972;2023-07-20T12:22:44;24.70;99.90
76967;DHT22;65904;52.278;20.972;2023-07-20T12:25:37;24.70;99.90
76967;DHT22;65904;52.278;20.972;2023-07-20T12:28:24;25.60;99.90
76967;DHT22;65904;52.278;20.972;2023-07-20T12:31:12;26.70;99.90
76967;DHT22;65904;52.278;20.972;2023-07-20T12:33:58;27.80;99.90
76967;DHT22;65904;52.278;20.972;2023-07-20T12:36:45;27.80;99.90
76967;DHT22;65904;52.278;20.972;2023-07-20T12:39:31;27.10;99.90
76967;DHT22;65904;52.278;20.972;2023-07-20T12:42:19;28.20;99.90
76967;DHT22;65904;52.278;20.972;2023-07-20T12:45:06;29.10;99.90
76967;DHT22;65904;52.278;20.972;2023-07-20T12:47:52;29.40;99.90
76967;DHT22;65904;52.278;20.972;2023-07-20T12:50:38;27.00;99.90
76967;DHT22;65904;52.278;20.972;2023-07-20T12:53:25;26.40;99.90
76967;DHT22;65904;52.278;20.972;2023-07-20T12:56:12;25.90;99.90
76967;DHT22;65904;52.278;20.972;2023-07-20T12:58:59;25.20;99.90
76967;DHT22;65904;52.278;20.972;2023-07-20T13:01:47;25.00;99.90
76967;DHT22;65904;52.278;20.972;2023-07-20T13:04:33;24.90;99.90
76967;DHT22;65904;52.278;20.972;2023-07-20T13:07:29;24.50;99.90
76967;DHT22;65904;52.278;20.972;2023-07-20T13:10:17;24.90;99.90
76967;DHT22;65904;52.278;20.972;2023-07-20T13:13:03;24.40;99.90
76967;DHT22;65904;52.278;20.972;2023-07-20T13:15:51;25.30;99.90
76967;DHT22;65904;52.278;20.972;2023-07-20T13:18:38;26.40;99.90
76967;DHT22;65904;52.278;20.972;2023-07-20T13:21:25;26.50;99.90
76967;DHT22;65904;52.278;20.972;2023-07-20T13:24:10;26.20;99.90
76967;DHT22;65904;52.278;20.972;2023-07-20T13:26:57;26.10;99.90
76967;DHT22;65904;52.278;20.972;2023-07-20T13:29:43;25.10;99.90
76967;DHT22;65904;52.278;20.972;2023-07-20T13:32:31;25.00;99.90
76967;DHT22;65904;52.278;20.972;2023-07-20T13:35:17;25.00;99.90
76967;DHT22;65904;52.278;20.972;2023-07-20T13:38:04;25.20;99.90
76967;DHT22;65904;52.278;20.972;2023-07-20T13:40:50;26.10;99.90
76967;DHT22;65904;52.278;20.972;2023-07-20T13:43:36;26.70;99.90
76967;DHT22;65904;52.278;20.972;2023-07-20T13:46:22;26.80;99.90
76967;DHT22;65904;52.278;20.972;2023-07-20T13:49:10;26.90;99.90
76967;DHT22;65904;52.278;20.972;2023-07-20T13:51:57;26.00;99.90
76967;DHT22;65904;52.278;20.972;2023-07-20T13:54:44;24.80;99.90
76967;DHT22;65904;52.278;20.972;2023-07-20T13:57:30;24.20;99.90
76967;DHT22;65904;52.278;20.972;2023-07-20T14:00:17;23.60;99.90
76967;DHT22;65904;52.278;20.972;2023-07-20T14:03:03;23.50;99.90
76967;DHT22;65904;52.278;20.972;2023-07-20T14:05:51;23.10;99.90
76967;DHT22;65904;52.278;20.972;2023-07-20T14:08:37;22.70;99.90
76967;DHT22;65904;52.278;20.972;2023-07-20T14:11:24;22.40;99.90
76967;DHT22;65904;52.278;20.972;2023-07-20T14:14:10;22.40;99.90
76967;DHT22;65904;52.278;20.972;2023-07-20T14:16:56;22.30;99.90
76967;DHT22;65904;52.278;20.972;2023-07-20T14:19:42;22.30;99.90
76967;DHT22;65904;52.278;20.972;2023-07-20T14:22:30;22.20;99.90
76967;DHT22;65904;52.278;20.972;2023-07-20T14:25:16;22.20;99.90
76967;DHT22;65904;52.278;20.972;2023-07-20T14:28:03;22.10;99.90
76967;DHT22;65904;52.278;20.972;2023-07-20T14:30:49;22.20;99.90
76967;DHT22;65904;52.278;20.972;2023-07-20T14:33:35;22.10;99.90
76967;DHT22;65904;52.278;20.972;2023-07-20T14:36:21;21.80;99.90
76967;DHT22;65904;52.278;20.972;2023-07-20T14:39:10;21.70;99.90
76967;DHT22;65904;52.278;20.972;2023-07-20T14:41:56;21.70;99.90
76967;DHT22;65904;52.278;20.972;2023-07-20T14:44:42;21.70;99.90
76967;DHT22;65904;52.278;20.972;2023-07-20T14:47:28;21.70;99.90
76967;DHT22;65904;52.278;20.972;2023-07-20T14:50:17;22.20;99.90
76967;DHT22;65904;52.278;20.972;2023-07-20T14:53:03;22.80;99.90
76967;DHT22;65904;52.278;20.972;2023-07-20T14:55:51;23.40;99.90
76967;DHT22;65904;52.278;20.972;2023-07-20T14:58:37;23.80;99.90
76967;DHT22;65904;52.278;20.972;2023-07-20T15:01:23;23.90;99.90
76967;DHT22;65904;52.278;20.972;2023-07-20T15:04:10;24.50;99.90
76967;DHT22;65904;52.278;20.972;2023-07-20T15:06:56;24.90;99.90
76967;DHT22;65904;52.278;20.972;2023-07-20T15:09:42;24.90;99.90
76967;DHT22;65904;52.278;20.972;2023-07-20T15:12:30;25.60;99.90
76967;DHT22;65904;52.278;20.972;2023-07-20T15:15:16;25.90;99.90
76967;DHT22;65904;52.278;20.972;2023-07-20T15:18:02;26.20;99.90
76967;DHT22;65904;52.278;20.972;2023-07-20T15:20:49;26.80;99.90
76967;DHT22;65904;52.278;20.972;2023-07-20T15:23:38;27.40;99.90
76967;DHT22;65904;52.278;20.972;2023-07-20T15:26:24;27.80;99.00
76967;DHT22;65904;52.278;20.972;2023-07-20T15:29:12;28.00;98.60
76967;DHT22;65904;52.278;20.972;2023-07-20T15:31:58;27.60;97.80
76967;DHT22;65904;52.278;20.972;2023-07-20T15:34:45;28.30;97.70
76967;DHT22;65904;52.278;20.972;2023-07-20T15:37:32;28.30;96.30
76967;DHT22;65904;52.278;20.972;2023-07-20T15:40:18;26.90;99.20
76967;DHT22;65904;52.278;20.972;2023-07-20T15:43:05;26.30;98.30
76967;DHT22;65904;52.278;20.972;2023-07-20T15:46:01;26.50;99.40
76967;DHT22;65904;52.278;20.972;2023-07-20T15:48:47;27.10;98.80
76967;DHT22;65904;52.278;20.972;2023-07-20T15:51:35;26.20;99.90
76967;DHT22;65904;52.278;20.972;2023-07-20T15:54:22;26.60;99.50
76967;DHT22;65904;52.278;20.972;2023-07-20T15:57:09;25.90;99.90
76967;DHT22;65904;52.278;20.972;2023-07-20T15:59:55;25.20;99.90
76967;DHT22;65904;52.278;20.972;2023-07-20T16:02:43;24.20;99.90
76967;DHT22;65904;52.278;20.972;2023-07-20T16:05:29;23.40;99.90
76967;DHT22;65904;52.278;20.972;2023-07-20T16:08:16;23.20;99.90
76967;DHT22;65904;52.278;20.972;2023-07-20T16:11:02;22.90;99.90
76967;DHT22;65904;52.278;20.972;2023-07-20T16:13:48;21.90;99.90
76967;DHT22;65904;52.278;20.972;2023-07-20T16:16:35;20.70;99.90
76967;DHT22;65904;52.278;20.972;2023-07-20T16:19:23;19.90;99.90
76967;DHT22;65904;52.278;20.972;2023-07-20T16:22:09;19.10;99.90
76967;DHT22;65904;52.278;20.972;2023-07-20T16:24:56;18.40;99.90
76967;DHT22;65904;52.278;20.972;2023-07-20T16:27:42;18.00;99.90
76967;DHT22;65904;52.278;20.972;2023-07-20T16:30:29;18.10;99.90
76967;DHT22;65904;52.278;20.972;2023-07-20T16:33:15;18.30;99.90
76967;DHT22;65904;52.278;20.972;2023-07-20T16:36:07;18.30;99.90
76967;DHT22;65904;52.278;20.972;2023-07-20T16:38:54;18.00;99.90
76967;DHT22;65904;52.278;20.972;2023-07-20T16:41:41;17.90;99.90
76967;DHT22;65904;52.278;20.972;2023-07-20T16:44:27;18.10;99.90
76967;DHT22;65904;52.278;20.972;2023-07-20T16:47:13;17.90;99.90
76967;DHT22;65904;52.278;20.972;2023-07-20T16:49:59;17.90;99.90
76967;DHT22;65904;52.278;20.972;2023-07-20T16:52:47;18.00;99.90
76967;DHT22;65904;52.278;20.972;2023-07-20T16:55:36;18.20;99.90
76967;DHT22;65904;52.278;20.972;2023-07-20T16:58:26;18.20;99.90
76967;DHT22;65904;52.278;20.972;2023-07-20T17:01:13;18.20;99.90
76967;DHT22;65904;52.278;20.972;2023-07-20T17:03:59;18.40;99.90
76967;DHT22;65904;52.278;20.972;2023-07-20T17:06:46;18.30;99.90
76967;DHT22;65904;52.278;20.972;2023-07-20T17:09:34;18.30;99.90
76967;DHT22;65904;52.278;20.972;2023-07-20T17:12:21;18.30;99.90
76967;DHT22;65904;52.278;20.972;2023-07-20T17:15:08;18.30;99.90
76967;DHT22;65904;52.278;20.972;2023-07-20T17:17:54;18.20;99.90
76967;DHT22;65904;52.278;20.972;2023-07-20T17:20:42;18.20;99.90
76967;DHT22;65904;52.278;20.972;2023-07-20T17:23:28;18.30;99.90